CCA8144 ZUUU-ZBHH
Flight info
| Callsign | CCA8144 |
|---|---|
| Flight time | N/A |
| Altitude | 33100 |
| Route | CDX W230 SUBUL G212 ONEBA W279 ANRUG W276 BOVKI W540 NNW W193 ALGOV W101 VALNI |
| Aircraft | B737/M-SDE3FGHIRWY/LB1 |
Departure
| Time | 2026-05-05 11:14 |
|---|---|
| Airport | Chengdu Shuangliu International Airport (ZUUU) |
Arrival
| Time | N/A |
|---|---|
| Airport | Hohhot Baita International Airport (ZBHH) |
| Time | Latitude | Longitude | Altitude | Speed | Heading |
|---|---|---|---|---|---|
| 2026-05-05 10:50 | 30.57903 | 103.95388 | 1632 ft | 0 kts | 22° |
| 2026-05-05 11:05 | 30.57902 | 103.95388 | 1632 ft | 1 kts | 22° |
| 2026-05-05 11:05 | 30.57890 | 103.95382 | 1632 ft | 2 kts | 22° |
| 2026-05-05 11:05 | 30.57875 | 103.95375 | 1632 ft | 2 kts | 22° |
| 2026-05-05 11:06 | 30.57860 | 103.95368 | 1632 ft | 2 kts | 22° |
| 2026-05-05 11:06 | 30.57845 | 103.95361 | 1632 ft | 2 kts | 22° |
| 2026-05-05 11:06 | 30.57830 | 103.95353 | 1632 ft | 2 kts | 22° |
| 2026-05-05 11:06 | 30.57819 | 103.95348 | 1632 ft | 0 kts | 22° |
| 2026-05-05 11:08 | 30.57840 | 103.95345 | 1632 ft | 7 kts | 313° |
| 2026-05-05 11:08 | 30.57867 | 103.95278 | 1632 ft | 8 kts | 265° |
| 2026-05-05 11:09 | 30.57827 | 103.95222 | 1632 ft | 10 kts | 282° |
| 2026-05-05 11:09 | 30.57868 | 103.95111 | 1632 ft | 19 kts | 292° |
| 2026-05-05 11:09 | 30.57914 | 103.94983 | 1632 ft | 11 kts | 293° |
| 2026-05-05 11:09 | 30.57899 | 103.94911 | 1632 ft | 14 kts | 205° |
| 2026-05-05 11:10 | 30.57772 | 103.94847 | 1632 ft | 25 kts | 202° |
| 2026-05-05 11:10 | 30.57605 | 103.94765 | 1632 ft | 25 kts | 203° |
| 2026-05-05 11:10 | 30.57450 | 103.94692 | 1632 ft | 23 kts | 202° |
| 2026-05-05 11:10 | 30.57306 | 103.94621 | 1632 ft | 22 kts | 203° |
| 2026-05-05 11:11 | 30.57167 | 103.94556 | 1632 ft | 21 kts | 202° |
| 2026-05-05 11:11 | 30.57016 | 103.94483 | 1632 ft | 27 kts | 203° |
| 2026-05-05 11:11 | 30.56838 | 103.94399 | 1632 ft | 27 kts | 201° |
| 2026-05-05 11:11 | 30.56668 | 103.94318 | 1632 ft | 27 kts | 202° |
| 2026-05-05 11:12 | 30.56493 | 103.94234 | 1632 ft | 26 kts | 203° |
| 2026-05-05 11:12 | 30.56347 | 103.94160 | 1632 ft | 11 kts | 204° |
| 2026-05-05 11:12 | 30.56318 | 103.94089 | 1632 ft | 12 kts | 289° |
| 2026-05-05 11:12 | 30.56350 | 103.94001 | 1632 ft | 12 kts | 293° |
| 2026-05-05 11:13 | 30.56391 | 103.93975 | 1632 ft | 7 kts | 20° |
| 2026-05-05 11:13 | 30.56507 | 103.94030 | 1632 ft | 43 kts | 22° |
| 2026-05-05 11:13 | 30.56979 | 103.94255 | 1632 ft | 102 kts | 22° |
| 2026-05-05 11:13 | 30.57800 | 103.94650 | 1649 ft | 149 kts | 22° |
| 2026-05-05 11:14 | 30.58788 | 103.95139 | 2067 ft | 160 kts | 23° |
| 2026-05-05 11:14 | 30.59838 | 103.95634 | 2535 ft | 172 kts | 21° |
| 2026-05-05 11:14 | 30.60974 | 103.96160 | 3166 ft | 170 kts | 21° |
| 2026-05-05 11:14 | 30.62058 | 103.96662 | 3745 ft | 170 kts | 20° |
| 2026-05-05 11:15 | 30.63199 | 103.97191 | 4051 ft | 184 kts | 21° |
| 2026-05-05 11:15 | 30.64431 | 103.97763 | 4303 ft | 201 kts | 21° |
| 2026-05-05 11:15 | 30.65777 | 103.98389 | 4533 ft | 215 kts | 22° |
| 2026-05-05 11:15 | 30.67219 | 103.99061 | 4785 ft | 232 kts | 23° |
| 2026-05-05 11:16 | 30.68712 | 103.99962 | 5070 ft | 252 kts | 36° |
| 2026-05-05 11:16 | 30.70002 | 104.01401 | 5614 ft | 263 kts | 52° |
| 2026-05-05 11:16 | 30.70977 | 104.03210 | 6367 ft | 266 kts | 62° |
| 2026-05-05 11:16 | 30.71790 | 104.05150 | 7158 ft | 269 kts | 65° |
| 2026-05-05 11:17 | 30.72588 | 104.07130 | 7957 ft | 272 kts | 64° |
| 2026-05-05 11:17 | 30.73429 | 104.09118 | 8768 ft | 275 kts | 64° |
| 2026-05-05 11:17 | 30.74290 | 104.11120 | 9593 ft | 278 kts | 64° |
| 2026-05-05 11:17 | 30.75158 | 104.13144 | 10399 ft | 282 kts | 64° |
| 2026-05-05 11:18 | 30.76094 | 104.15209 | 10831 ft | 300 kts | 55° |
| 2026-05-05 11:18 | 30.77598 | 104.16987 | 11103 ft | 319 kts | 34° |
| 2026-05-05 11:18 | 30.79585 | 104.18284 | 11460 ft | 336 kts | 24° |
| 2026-05-05 11:18 | 30.81792 | 104.19393 | 11805 ft | 354 kts | 19° |
| 2026-05-05 11:19 | 30.84153 | 104.20416 | 12191 ft | 368 kts | 18° |
| 2026-05-05 11:19 | 30.86581 | 104.21443 | 12874 ft | 373 kts | 18° |
| 2026-05-05 11:19 | 30.89019 | 104.22486 | 13619 ft | 375 kts | 18° |
| 2026-05-05 11:19 | 30.91478 | 104.23545 | 14335 ft | 379 kts | 18° |
| 2026-05-05 11:20 | 30.93969 | 104.24623 | 14989 ft | 383 kts | 18° |
| 2026-05-05 11:20 | 30.96445 | 104.25729 | 15783 ft | 383 kts | 19° |
| 2026-05-05 11:20 | 30.98953 | 104.26853 | 16341 ft | 390 kts | 18° |
| 2026-05-05 11:20 | 31.01517 | 104.27981 | 16923 ft | 394 kts | 18° |
| 2026-05-05 11:21 | 31.04093 | 104.29103 | 17534 ft | 399 kts | 18° |
| 2026-05-05 11:21 | 31.06716 | 104.30238 | 18094 ft | 404 kts | 17° |
| 2026-05-05 11:21 | 31.09364 | 104.31379 | 18664 ft | 408 kts | 17° |
| 2026-05-05 11:21 | 31.12042 | 104.32529 | 19188 ft | 413 kts | 17° |
| 2026-05-05 11:22 | 31.14756 | 104.33689 | 19694 ft | 417 kts | 17° |
| 2026-05-05 11:22 | 31.17488 | 104.34851 | 20287 ft | 419 kts | 17° |
| 2026-05-05 11:22 | 31.20240 | 104.36016 | 20844 ft | 422 kts | 17° |
| 2026-05-05 11:22 | 31.22931 | 104.37437 | 21352 ft | 429 kts | 27° |
| 2026-05-05 11:23 | 31.25343 | 104.39529 | 21866 ft | 437 kts | 40° |
| 2026-05-05 11:23 | 31.27340 | 104.42232 | 22357 ft | 443 kts | 52° |
| 2026-05-05 11:23 | 31.29017 | 104.45277 | 22830 ft | 447 kts | 57° |
| 2026-05-05 11:23 | 31.30577 | 104.48445 | 23307 ft | 450 kts | 58° |
| 2026-05-05 11:24 | 31.32155 | 104.51617 | 23752 ft | 452 kts | 57° |
| 2026-05-05 11:24 | 31.33770 | 104.54787 | 24170 ft | 455 kts | 56° |
| 2026-05-05 11:24 | 31.35405 | 104.57968 | 24584 ft | 458 kts | 56° |
| 2026-05-05 11:24 | 31.37031 | 104.61121 | 24955 ft | 461 kts | 56° |
| 2026-05-05 11:25 | 31.38697 | 104.64350 | 25287 ft | 465 kts | 56° |
| 2026-05-05 11:25 | 31.40377 | 104.67605 | 25631 ft | 468 kts | 56° |